sensor_id;sensor_type;location;lat;lon;timestamp;pressure;altitude;pressure_sealevel;temperature;humidity
54038;BME280;39954;48.844;9.726;2023-12-28T00:00:34;96140.41;;;5.33;66.30
54038;BME280;39954;48.844;9.726;2023-12-28T00:01:37;96151.88;;;5.48;65.44
54038;BME280;39954;48.844;9.726;2023-12-28T00:02:42;96156.28;;;5.46;65.30
54038;BME280;39954;48.844;9.726;2023-12-28T00:03:44;96155.47;;;5.44;67.34
54038;BME280;39954;48.844;9.726;2023-12-28T00:04:49;96158.41;;;5.35;66.49
54038;BME280;39954;48.844;9.726;2023-12-28T00:05:51;96160.00;;;5.37;65.80
54038;BME280;39954;48.844;9.726;2023-12-28T00:06:56;96156.34;;;5.43;65.40
54038;BME280;39954;48.844;9.726;2023-12-28T00:07:58;96147.75;;;5.44;65.94
54038;BME280;39954;48.844;9.726;2023-12-28T00:09:04;96149.84;;;5.58;65.39
54038;BME280;39954;48.844;9.726;2023-12-28T00:10:13;96148.13;;;5.57;64.81
54038;BME280;39954;48.844;9.726;2023-12-28T00:11:20;96150.44;;;5.65;64.55
54038;BME280;39954;48.844;9.726;2023-12-28T00:12:22;96158.03;;;5.69;64.64
54038;BME280;39954;48.844;9.726;2023-12-28T00:13:27;96159.31;;;5.57;64.66
54038;BME280;39954;48.844;9.726;2023-12-28T00:14:29;96153.41;;;5.54;65.14
54038;BME280;39954;48.844;9.726;2023-12-28T00:15:34;96156.94;;;5.51;65.18
54038;BME280;39954;48.844;9.726;2023-12-28T00:16:36;96152.94;;;5.43;66.09
54038;BME280;39954;48.844;9.726;2023-12-28T00:17:41;96162.28;;;5.47;65.57
54038;BME280;39954;48.844;9.726;2023-12-28T00:18:45;96160.69;;;5.43;66.59
54038;BME280;39954;48.844;9.726;2023-12-28T00:19:48;96160.50;;;5.24;66.76
54038;BME280;39954;48.844;9.726;2023-12-28T00:20:53;96164.38;;;5.10;67.40
54038;BME280;39954;48.844;9.726;2023-12-28T00:21:55;96165.00;;;4.92;66.87
54038;BME280;39954;48.844;9.726;2023-12-28T00:23:00;96164.50;;;4.81;66.68
54038;BME280;39954;48.844;9.726;2023-12-28T00:24:02;96157.72;;;4.78;67.31
54038;BME280;39954;48.844;9.726;2023-12-28T00:25:05;96162.88;;;4.78;68.26
54038;BME280;39954;48.844;9.726;2023-12-28T00:26:10;96162.25;;;4.71;67.64
54038;BME280;39954;48.844;9.726;2023-12-28T00:27:15;96174.38;;;4.68;66.98
54038;BME280;39954;48.844;9.726;2023-12-28T00:28:20;96174.41;;;4.66;66.59
54038;BME280;39954;48.844;9.726;2023-12-28T00:29:22;96172.88;;;4.87;66.43
54038;BME280;39954;48.844;9.726;2023-12-28T00:30:27;96166.03;;;4.86;67.57
54038;BME280;39954;48.844;9.726;2023-12-28T00:31:30;96165.00;;;4.92;68.00
54038;BME280;39954;48.844;9.726;2023-12-28T00:32:35;96168.69;;;4.85;66.95
54038;BME280;39954;48.844;9.726;2023-12-28T00:33:37;96178.19;;;4.83;67.12
54038;BME280;39954;48.844;9.726;2023-12-28T00:34:42;96173.94;;;4.82;66.39
54038;BME280;39954;48.844;9.726;2023-12-28T00:35:44;96171.38;;;4.80;66.46
54038;BME280;39954;48.844;9.726;2023-12-28T00:36:49;96178.97;;;4.85;66.64
54038;BME280;39954;48.844;9.726;2023-12-28T00:37:51;96173.88;;;4.83;67.30
54038;BME280;39954;48.844;9.726;2023-12-28T00:38:57;96175.94;;;4.99;67.37
54038;BME280;39954;48.844;9.726;2023-12-28T00:39:59;96174.78;;;5.07;67.11
54038;BME280;39954;48.844;9.726;2023-12-28T00:41:04;96167.72;;;5.12;67.39
54038;BME280;39954;48.844;9.726;2023-12-28T00:42:07;96171.44;;;5.30;65.93
54038;BME280;39954;48.844;9.726;2023-12-28T00:43:14;96169.56;;;5.34;65.86
54038;BME280;39954;48.844;9.726;2023-12-28T00:44:17;96171.69;;;5.23;66.24
54038;BME280;39954;48.844;9.726;2023-12-28T00:45:21;96161.94;;;5.31;66.24
54038;BME280;39954;48.844;9.726;2023-12-28T00:46:24;96168.78;;;5.32;65.76
54038;BME280;39954;48.844;9.726;2023-12-28T00:47:28;96175.88;;;5.25;65.94
54038;BME280;39954;48.844;9.726;2023-12-28T00:48:30;96173.53;;;5.19;65.95
54038;BME280;39954;48.844;9.726;2023-12-28T00:49:35;96174.72;;;5.09;66.69
54038;BME280;39954;48.844;9.726;2023-12-28T00:50:38;96169.75;;;5.04;67.17
54038;BME280;39954;48.844;9.726;2023-12-28T00:51:43;96167.84;;;5.09;66.57
54038;BME280;39954;48.844;9.726;2023-12-28T00:52:46;96167.06;;;5.07;66.31
54038;BME280;39954;48.844;9.726;2023-12-28T00:53:51;96174.84;;;5.06;66.08
54038;BME280;39954;48.844;9.726;2023-12-28T00:54:53;96180.34;;;4.95;66.57
54038;BME280;39954;48.844;9.726;2023-12-28T00:55:58;96164.66;;;5.01;66.40
54038;BME280;39954;48.844;9.726;2023-12-28T00:57:02;96168.25;;;4.97;67.44
54038;BME280;39954;48.844;9.726;2023-12-28T00:58:07;96177.06;;;4.90;67.93
54038;BME280;39954;48.844;9.726;2023-12-28T00:59:13;96165.66;;;4.99;66.71
54038;BME280;39954;48.844;9.726;2023-12-28T01:00:18;96174.00;;;5.05;66.76
54038;BME280;39954;48.844;9.726;2023-12-28T01:01:20;96173.41;;;4.97;67.02
54038;BME280;39954;48.844;9.726;2023-12-28T01:02:25;96166.16;;;5.08;67.04
54038;BME280;39954;48.844;9.726;2023-12-28T01:03:27;96170.00;;;4.97;66.16
54038;BME280;39954;48.844;9.726;2023-12-28T01:04:29;96163.31;;;4.91;66.80
54038;BME280;39954;48.844;9.726;2023-12-28T01:05:35;96178.25;;;5.06;65.72
54038;BME280;39954;48.844;9.726;2023-12-28T01:06:37;96178.25;;;5.06;64.93
54038;BME280;39954;48.844;9.726;2023-12-28T01:07:42;96172.56;;;4.97;65.70
54038;BME280;39954;48.844;9.726;2023-12-28T01:08:44;96179.41;;;4.98;65.49
54038;BME280;39954;48.844;9.726;2023-12-28T01:09:48;96174.22;;;4.99;65.78
54038;BME280;39954;48.844;9.726;2023-12-28T01:10:51;96177.75;;;5.22;64.66
54038;BME280;39954;48.844;9.726;2023-12-28T01:11:56;96181.13;;;5.24;64.88
54038;BME280;39954;48.844;9.726;2023-12-28T01:12:58;96179.63;;;5.16;66.06
54038;BME280;39954;48.844;9.726;2023-12-28T01:14:02;96190.91;;;5.12;65.56
54038;BME280;39954;48.844;9.726;2023-12-28T01:15:08;96188.53;;;5.06;65.83
54038;BME280;39954;48.844;9.726;2023-12-28T01:16:13;96191.81;;;5.11;65.26
54038;BME280;39954;48.844;9.726;2023-12-28T01:17:16;96194.06;;;5.21;64.47
54038;BME280;39954;48.844;9.726;2023-12-28T01:18:21;96181.00;;;5.27;64.96
54038;BME280;39954;48.844;9.726;2023-12-28T01:19:24;96181.00;;;5.27;65.10
54038;BME280;39954;48.844;9.726;2023-12-28T01:20:29;96179.19;;;5.29;64.37
54038;BME280;39954;48.844;9.726;2023-12-28T01:21:33;96166.88;;;5.37;64.72
54038;BME280;39954;48.844;9.726;2023-12-28T01:22:38;96166.88;;;5.37;64.90
54038;BME280;39954;48.844;9.726;2023-12-28T01:23:40;96165.00;;;5.42;64.35
54038;BME280;39954;48.844;9.726;2023-12-28T01:24:46;96168.16;;;5.50;64.23
54038;BME280;39954;48.844;9.726;2023-12-28T01:25:49;96165.47;;;5.53;63.85
54038;BME280;39954;48.844;9.726;2023-12-28T01:26:53;96167.69;;;5.63;63.47
54038;BME280;39954;48.844;9.726;2023-12-28T01:27:56;96160.84;;;5.63;63.94
54038;BME280;39954;48.844;9.726;2023-12-28T01:29:01;96167.84;;;5.83;63.12
54038;BME280;39954;48.844;9.726;2023-12-28T01:30:08;96161.88;;;5.81;63.19
54038;BME280;39954;48.844;9.726;2023-12-28T01:31:13;96164.63;;;5.76;63.39
54038;BME280;39954;48.844;9.726;2023-12-28T01:32:15;96163.66;;;5.79;62.80
54038;BME280;39954;48.844;9.726;2023-12-28T01:33:20;96167.16;;;5.78;62.51
54038;BME280;39954;48.844;9.726;2023-12-28T01:34:23;96169.63;;;5.81;63.12
54038;BME280;39954;48.844;9.726;2023-12-28T01:35:28;96162.69;;;5.83;63.24
54038;BME280;39954;48.844;9.726;2023-12-28T01:36:30;96168.59;;;5.85;62.27
54038;BME280;39954;48.844;9.726;2023-12-28T01:37:35;96174.38;;;5.92;61.88
54038;BME280;39954;48.844;9.726;2023-12-28T01:38:37;96170.53;;;5.80;62.31
54038;BME280;39954;48.844;9.726;2023-12-28T01:39:42;96172.88;;;5.86;62.77
54038;BME280;39954;48.844;9.726;2023-12-28T01:40:44;96176.13;;;5.91;61.77
54038;BME280;39954;48.844;9.726;2023-12-28T01:41:49;96180.44;;;5.91;62.11
54038;BME280;39954;48.844;9.726;2023-12-28T01:42:52;96189.16;;;5.88;62.53
54038;BME280;39954;48.844;9.726;2023-12-28T01:43:57;96182.09;;;5.93;61.08
54038;BME280;39954;48.844;9.726;2023-12-28T01:44:59;96178.28;;;6.03;60.93
54038;BME280;39954;48.844;9.726;2023-12-28T01:46:04;96186.56;;;6.12;61.70
54038;BME280;39954;48.844;9.726;2023-12-28T01:47:09;96185.78;;;6.10;60.97
54038;BME280;39954;48.844;9.726;2023-12-28T01:48:13;96189.94;;;6.14;61.35
54038;BME280;39954;48.844;9.726;2023-12-28T01:49:18;96184.78;;;6.14;60.80
54038;BME280;39954;48.844;9.726;2023-12-28T01:50:23;96191.75;;;6.12;60.87
54038;BME280;39954;48.844;9.726;2023-12-28T01:51:30;96190.00;;;6.12;60.85
54038;BME280;39954;48.844;9.726;2023-12-28T01:52:32;96184.31;;;6.26;60.50
54038;BME280;39954;48.844;9.726;2023-12-28T01:53:38;96189.72;;;6.20;60.39
54038;BME280;39954;48.844;9.726;2023-12-28T01:54:40;96193.91;;;6.22;60.74
54038;BME280;39954;48.844;9.726;2023-12-28T01:55:45;96193.53;;;6.10;61.49
54038;BME280;39954;48.844;9.726;2023-12-28T01:56:49;96193.88;;;6.00;61.40
54038;BME280;39954;48.844;9.726;2023-12-28T01:57:54;96195.66;;;5.98;61.29
54038;BME280;39954;48.844;9.726;2023-12-28T01:58:57;96204.63;;;5.88;61.50
54038;BME280;39954;48.844;9.726;2023-12-28T02:00:03;96205.31;;;5.93;61.51
54038;BME280;39954;48.844;9.726;2023-12-28T02:01:09;96199.47;;;5.88;61.82
54038;BME280;39954;48.844;9.726;2023-12-28T02:02:14;96195.84;;;5.94;61.48
54038;BME280;39954;48.844;9.726;2023-12-28T02:03:17;96202.19;;;6.09;61.38
54038;BME280;39954;48.844;9.726;2023-12-28T02:04:22;96204.91;;;6.04;61.82
54038;BME280;39954;48.844;9.726;2023-12-28T02:05:30;96196.66;;;6.18;61.54
54038;BME280;39954;48.844;9.726;2023-12-28T02:06:35;96200.88;;;6.20;60.92
54038;BME280;39954;48.844;9.726;2023-12-28T02:07:37;96196.50;;;6.22;61.63
54038;BME280;39954;48.844;9.726;2023-12-28T02:08:42;96205.19;;;6.20;61.19
54038;BME280;39954;48.844;9.726;2023-12-28T02:09:47;96202.41;;;6.24;60.97
54038;BME280;39954;48.844;9.726;2023-12-28T02:10:52;96203.59;;;6.16;61.17
54038;BME280;39954;48.844;9.726;2023-12-28T02:11:56;96204.13;;;6.25;60.75
54038;BME280;39954;48.844;9.726;2023-12-28T02:13:01;96200.34;;;6.34;61.33
54038;BME280;39954;48.844;9.726;2023-12-28T02:14:03;96205.06;;;6.23;60.80
54038;BME280;39954;48.844;9.726;2023-12-28T02:15:11;96201.47;;;6.05;62.46
54038;BME280;39954;48.844;9.726;2023-12-28T02:16:20;96211.03;;;6.01;62.06
54038;BME280;39954;48.844;9.726;2023-12-28T02:17:30;96210.16;;;6.02;60.90
54038;BME280;39954;48.844;9.726;2023-12-28T02:18:41;96215.06;;;6.09;61.24
54038;BME280;39954;48.844;9.726;2023-12-28T02:19:50;96205.97;;;6.22;60.19
54038;BME280;39954;48.844;9.726;2023-12-28T02:20:54;96210.47;;;6.17;61.71
54038;BME280;39954;48.844;9.726;2023-12-28T02:21:59;96209.91;;;6.09;61.20
54038;BME280;39954;48.844;9.726;2023-12-28T02:23:02;96216.75;;;6.10;61.43
54038;BME280;39954;48.844;9.726;2023-12-28T02:24:07;96218.22;;;6.17;60.61
54038;BME280;39954;48.844;9.726;2023-12-28T02:25:13;96216.94;;;6.27;60.40
54038;BME280;39954;48.844;9.726;2023-12-28T02:26:18;96220.31;;;6.29;60.15
54038;BME280;39954;48.844;9.726;2023-12-28T02:27:20;96219.25;;;6.35;60.11
54038;BME280;39954;48.844;9.726;2023-12-28T02:28:22;96217.34;;;6.40;60.18
54038;BME280;39954;48.844;9.726;2023-12-28T02:29:29;96222.63;;;6.37;60.51
54038;BME280;39954;48.844;9.726;2023-12-28T02:30:32;96225.03;;;6.41;60.14
54038;BME280;39954;48.844;9.726;2023-12-28T02:31:41;96226.81;;;6.39;60.37
54038;BME280;39954;48.844;9.726;2023-12-28T02:32:53;96228.97;;;6.28;61.30
54038;BME280;39954;48.844;9.726;2023-12-28T02:34:08;96218.81;;;6.23;60.84
54038;BME280;39954;48.844;9.726;2023-12-28T02:35:18;96221.78;;;6.13;61.99
54038;BME280;39954;48.844;9.726;2023-12-28T02:36:23;96219.50;;;6.05;61.96
54038;BME280;39954;48.844;9.726;2023-12-28T02:37:30;96219.97;;;6.16;61.81
54038;BME280;39954;48.844;9.726;2023-12-28T02:38:36;96224.06;;;6.22;61.56
54038;BME280;39954;48.844;9.726;2023-12-28T02:39:42;96224.50;;;6.10;61.90
54038;BME280;39954;48.844;9.726;2023-12-28T02:40:49;96227.25;;;6.05;62.40
54038;BME280;39954;48.844;9.726;2023-12-28T02:41:54;96228.38;;;5.98;62.50
54038;BME280;39954;48.844;9.726;2023-12-28T02:42:57;96226.97;;;5.88;63.09
54038;BME280;39954;48.844;9.726;2023-12-28T02:44:04;96225.53;;;5.80;63.21
54038;BME280;39954;48.844;9.726;2023-12-28T02:45:06;96224.56;;;5.83;62.95
54038;BME280;39954;48.844;9.726;2023-12-28T02:46:11;96227.34;;;5.77;64.02
54038;BME280;39954;48.844;9.726;2023-12-28T02:47:14;96218.72;;;5.78;63.68
54038;BME280;39954;48.844;9.726;2023-12-28T02:48:21;96221.34;;;5.76;63.70
54038;BME280;39954;48.844;9.726;2023-12-28T02:49:23;96231.16;;;5.67;64.22
54038;BME280;39954;48.844;9.726;2023-12-28T02:50:29;96228.00;;;5.58;64.64
54038;BME280;39954;48.844;9.726;2023-12-28T02:51:32;96233.06;;;5.61;63.78
54038;BME280;39954;48.844;9.726;2023-12-28T02:52:37;96230.53;;;5.60;63.46
54038;BME280;39954;48.844;9.726;2023-12-28T02:53:39;96234.16;;;5.54;63.69
54038;BME280;39954;48.844;9.726;2023-12-28T02:54:44;96227.28;;;5.55;64.52
54038;BME280;39954;48.844;9.726;2023-12-28T02:55:49;96227.78;;;5.65;63.83
54038;BME280;39954;48.844;9.726;2023-12-28T02:56:54;96229.09;;;5.51;65.03
54038;BME280;39954;48.844;9.726;2023-12-28T02:57:57;96240.44;;;5.47;64.34
54038;BME280;39954;48.844;9.726;2023-12-28T02:59:04;96238.22;;;5.36;64.99
54038;BME280;39954;48.844;9.726;2023-12-28T03:00:07;96235.88;;;5.29;65.11
54038;BME280;39954;48.844;9.726;2023-12-28T03:01:12;96235.84;;;5.30;65.05
54038;BME280;39954;48.844;9.726;2023-12-28T03:02:15;96236.09;;;5.23;65.54
54038;BME280;39954;48.844;9.726;2023-12-28T03:03:17;96231.25;;;5.13;66.31
54038;BME280;39954;48.844;9.726;2023-12-28T03:04:22;96227.78;;;5.14;65.73
54038;BME280;39954;48.844;9.726;2023-12-28T03:05:24;96226.03;;;5.15;65.46
54038;BME280;39954;48.844;9.726;2023-12-28T03:06:29;96225.09;;;5.18;65.59
54038;BME280;39954;48.844;9.726;2023-12-28T03:07:31;96238.69;;;5.23;64.70
54038;BME280;39954;48.844;9.726;2023-12-28T03:08:36;96226.63;;;5.23;65.68
54038;BME280;39954;48.844;9.726;2023-12-28T03:09:38;96226.63;;;5.23;65.71
54038;BME280;39954;48.844;9.726;2023-12-28T03:10:43;96224.22;;;5.19;66.29
54038;BME280;39954;48.844;9.726;2023-12-28T03:11:49;96218.38;;;5.13;66.84
54038;BME280;39954;48.844;9.726;2023-12-28T03:12:51;96219.75;;;5.24;66.06
54038;BME280;39954;48.844;9.726;2023-12-28T03:13:56;96217.25;;;5.21;65.98
54038;BME280;39954;48.844;9.726;2023-12-28T03:14:58;96226.91;;;5.15;66.26
54038;BME280;39954;48.844;9.726;2023-12-28T03:16:03;96221.81;;;5.12;65.82
54038;BME280;39954;48.844;9.726;2023-12-28T03:17:07;96218.28;;;5.16;66.20
54038;BME280;39954;48.844;9.726;2023-12-28T03:18:09;96216.63;;;5.14;66.70
54038;BME280;39954;48.844;9.726;2023-12-28T03:19:14;96217.69;;;5.08;66.75
54038;BME280;39954;48.844;9.726;2023-12-28T03:20:17;96212.44;;;5.11;65.93
54038;BME280;39954;48.844;9.726;2023-12-28T03:21:22;96219.91;;;5.19;66.03
54038;BME280;39954;48.844;9.726;2023-12-28T03:22:24;96222.53;;;5.18;66.47
54038;BME280;39954;48.844;9.726;2023-12-28T03:23:29;96219.75;;;5.24;66.23
54038;BME280;39954;48.844;9.726;2023-12-28T03:24:31;96208.00;;;5.40;65.34
54038;BME280;39954;48.844;9.726;2023-12-28T03:25:36;96209.81;;;5.38;65.59
54038;BME280;39954;48.844;9.726;2023-12-28T03:26:38;96206.44;;;5.36;65.17
54038;BME280;39954;48.844;9.726;2023-12-28T03:27:46;96205.72;;;5.32;65.61
54038;BME280;39954;48.844;9.726;2023-12-28T03:28:48;96210.09;;;5.30;65.74
54038;BME280;39954;48.844;9.726;2023-12-28T03:29:54;96203.16;;;5.32;65.98
54038;BME280;39954;48.844;9.726;2023-12-28T03:30:56;96216.03;;;5.32;64.91
54038;BME280;39954;48.844;9.726;2023-12-28T03:32:02;96209.81;;;5.38;65.39
54038;BME280;39954;48.844;9.726;2023-12-28T03:33:04;96213.28;;;5.37;65.28
54038;BME280;39954;48.844;9.726;2023-12-28T03:34:09;96215.09;;;5.35;65.52
54038;BME280;39954;48.844;9.726;2023-12-28T03:35:12;96226.28;;;5.34;65.85
54038;BME280;39954;48.844;9.726;2023-12-28T03:36:20;96218.91;;;5.23;65.91
54038;BME280;39954;48.844;9.726;2023-12-28T03:37:22;96223.19;;;5.24;65.46
54038;BME280;39954;48.844;9.726;2023-12-28T03:38:27;96217.13;;;5.25;65.20
54038;BME280;39954;48.844;9.726;2023-12-28T03:39:30;96217.19;;;5.24;66.29
54038;BME280;39954;48.844;9.726;2023-12-28T03:40:32;96210.22;;;5.26;65.93
54038;BME280;39954;48.844;9.726;2023-12-28T03:41:37;96217.81;;;5.30;66.49
54038;BME280;39954;48.844;9.726;2023-12-28T03:42:39;96218.66;;;5.31;66.58
54038;BME280;39954;48.844;9.726;2023-12-28T03:43:46;96220.31;;;5.32;66.41
54038;BME280;39954;48.844;9.726;2023-12-28T03:44:49;96217.66;;;5.35;65.79
54038;BME280;39954;48.844;9.726;2023-12-28T03:45:53;96221.91;;;5.36;65.79
54038;BME280;39954;48.844;9.726;2023-12-28T03:46:56;96219.56;;;5.55;65.04
54038;BME280;39954;48.844;9.726;2023-12-28T03:47:58;96224.63;;;5.56;65.18
54038;BME280;39954;48.844;9.726;2023-12-28T03:49:03;96221.56;;;5.70;65.31
54038;BME280;39954;48.844;9.726;2023-12-28T03:50:07;96218.00;;;5.74;64.29
54038;BME280;39954;48.844;9.726;2023-12-28T03:51:14;96221.44;;;5.75;64.24
54038;BME280;39954;48.844;9.726;2023-12-28T03:52:17;96215.47;;;5.73;64.59
54038;BME280;39954;48.844;9.726;2023-12-28T03:53:19;96223.91;;;5.78;64.56
54038;BME280;39954;48.844;9.726;2023-12-28T03:54:24;96223.00;;;5.79;64.53
54038;BME280;39954;48.844;9.726;2023-12-28T03:55:26;96230.22;;;5.94;63.44
54038;BME280;39954;48.844;9.726;2023-12-28T03:56:31;96229.28;;;5.97;64.00
54038;BME280;39954;48.844;9.726;2023-12-28T03:57:37;96223.25;;;5.96;63.78
54038;BME280;39954;48.844;9.726;2023-12-28T03:58:39;96224.59;;;6.07;63.55
54038;BME280;39954;48.844;9.726;2023-12-28T03:59:44;96225.03;;;6.18;63.32
54038;BME280;39954;48.844;9.726;2023-12-28T04:00:49;96219.97;;;6.16;63.27
54038;BME280;39954;48.844;9.726;2023-12-28T04:01:51;96227.75;;;6.15;62.71
54038;BME280;39954;48.844;9.726;2023-12-28T04:02:56;96215.94;;;6.08;64.19
54038;BME280;39954;48.844;9.726;2023-12-28T04:04:01;96219.22;;;6.13;63.27
54038;BME280;39954;48.844;9.726;2023-12-28T04:05:07;96215.00;;;6.10;63.48
54038;BME280;39954;48.844;9.726;2023-12-28T04:06:09;96221.91;;;6.10;63.64
54038;BME280;39954;48.844;9.726;2023-12-28T04:07:14;96219.50;;;6.05;64.40
54038;BME280;39954;48.844;9.726;2023-12-28T04:08:18;96220.91;;;6.14;63.22
54038;BME280;39954;48.844;9.726;2023-12-28T04:09:22;96225.13;;;6.16;63.81
54038;BME280;39954;48.844;9.726;2023-12-28T04:10:29;96225.13;;;6.16;63.26
54038;BME280;39954;48.844;9.726;2023-12-28T04:11:35;96219.88;;;6.18;63.76
54038;BME280;39954;48.844;9.726;2023-12-28T04:12:37;96217.31;;;6.18;64.19
54038;BME280;39954;48.844;9.726;2023-12-28T04:13:39;96215.56;;;6.18;64.39
54038;BME280;39954;48.844;9.726;2023-12-28T04:14:47;96211.91;;;6.24;63.79
54038;BME280;39954;48.844;9.726;2023-12-28T04:15:49;96208.31;;;6.28;63.44
54038;BME280;39954;48.844;9.726;2023-12-28T04:16:54;96211.66;;;6.30;63.77
54038;BME280;39954;48.844;9.726;2023-12-28T04:17:56;96209.16;;;6.28;63.43
54038;BME280;39954;48.844;9.726;2023-12-28T04:19:02;96212.28;;;6.37;63.53
54038;BME280;39954;48.844;9.726;2023-12-28T04:20:07;96212.28;;;6.37;63.57
54038;BME280;39954;48.844;9.726;2023-12-28T04:21:09;96219.97;;;6.38;63.28
54038;BME280;39954;48.844;9.726;2023-12-28T04:22:14;96208.88;;;6.36;63.63
54038;BME280;39954;48.844;9.726;2023-12-28T04:23:16;96209.88;;;6.32;64.67
54038;BME280;39954;48.844;9.726;2023-12-28T04:24:21;96200.59;;;6.28;64.69
54038;BME280;39954;48.844;9.726;2023-12-28T04:25:23;96206.31;;;6.36;63.47
54038;BME280;39954;48.844;9.726;2023-12-28T04:26:26;96201.13;;;6.36;63.87
54038;BME280;39954;48.844;9.726;2023-12-28T04:27:32;96201.56;;;6.47;63.15
54038;BME280;39954;48.844;9.726;2023-12-28T04:28:34;96204.84;;;6.51;62.49
54038;BME280;39954;48.844;9.726;2023-12-28T04:29:39;96197.81;;;6.55;62.62
54038;BME280;39954;48.844;9.726;2023-12-28T04:30:43;96200.06;;;6.64;61.53
54038;BME280;39954;48.844;9.726;2023-12-28T04:31:49;96194.13;;;6.62;62.53
54038;BME280;39954;48.844;9.726;2023-12-28T04:32:51;96191.66;;;6.59;63.67
54038;BME280;39954;48.844;9.726;2023-12-28T04:33:57;96191.66;;;6.59;63.19
54038;BME280;39954;48.844;9.726;2023-12-28T04:35:00;96194.03;;;6.63;62.61
54038;BME280;39954;48.844;9.726;2023-12-28T04:36:05;96188.03;;;6.63;63.16
54038;BME280;39954;48.844;9.726;2023-12-28T04:37:10;96194.16;;;6.60;63.49
54038;BME280;39954;48.844;9.726;2023-12-28T04:38:13;96185.41;;;6.64;62.58
54038;BME280;39954;48.844;9.726;2023-12-28T04:39:17;96186.50;;;6.59;63.94
54038;BME280;39954;48.844;9.726;2023-12-28T04:40:20;96191.44;;;6.63;62.89
54038;BME280;39954;48.844;9.726;2023-12-28T04:41:25;96187.09;;;6.65;63.10
54038;BME280;39954;48.844;9.726;2023-12-28T04:42:27;96195.19;;;6.78;62.12
54038;BME280;39954;48.844;9.726;2023-12-28T04:43:32;96193.31;;;6.82;62.41
54038;BME280;39954;48.844;9.726;2023-12-28T04:44:37;96191.75;;;6.78;62.33
54038;BME280;39954;48.844;9.726;2023-12-28T04:45:44;96185.56;;;6.82;62.42
54038;BME280;39954;48.844;9.726;2023-12-28T04:46:47;96182.16;;;6.81;62.20
54038;BME280;39954;48.844;9.726;2023-12-28T04:47:51;96176.38;;;6.75;63.04
54038;BME280;39954;48.844;9.726;2023-12-28T04:48:54;96180.56;;;6.77;62.01
54038;BME280;39954;48.844;9.726;2023-12-28T04:49:59;96190.03;;;6.78;61.60
54038;BME280;39954;48.844;9.726;2023-12-28T04:51:02;96185.94;;;6.72;62.91
54038;BME280;39954;48.844;9.726;2023-12-28T04:52:08;96183.59;;;6.66;63.02
54038;BME280;39954;48.844;9.726;2023-12-28T04:53:10;96186.91;;;6.70;62.70
54038;BME280;39954;48.844;9.726;2023-12-28T04:54:15;96194.69;;;6.68;62.45
54038;BME280;39954;48.844;9.726;2023-12-28T04:55:17;96192.25;;;6.65;62.59
54038;BME280;39954;48.844;9.726;2023-12-28T04:56:19;96198.25;;;6.66;62.91
54038;BME280;39954;48.844;9.726;2023-12-28T04:57:24;96195.88;;;6.61;63.21
54038;BME280;39954;48.844;9.726;2023-12-28T04:58:27;96196.69;;;6.62;62.44
54038;BME280;39954;48.844;9.726;2023-12-28T04:59:32;96207.88;;;6.62;62.60
54038;BME280;39954;48.844;9.726;2023-12-28T05:00:34;96204.84;;;6.73;62.51
54038;BME280;39954;48.844;9.726;2023-12-28T05:01:45;96200.53;;;6.73;62.58
54038;BME280;39954;48.844;9.726;2023-12-28T05:02:47;96201.25;;;6.77;61.69
54038;BME280;39954;48.844;9.726;2023-12-28T05:03:52;96202.69;;;6.84;61.63
54038;BME280;39954;48.844;9.726;2023-12-28T05:04:54;96197.41;;;6.87;61.67
54038;BME280;39954;48.844;9.726;2023-12-28T05:06:01;96204.31;;;6.87;62.66
54038;BME280;39954;48.844;9.726;2023-12-28T05:07:03;96216.00;;;6.95;61.01
54038;BME280;39954;48.844;9.726;2023-12-28T05:08:08;96203.41;;;7.08;60.70
54038;BME280;39954;48.844;9.726;2023-12-28T05:09:10;96211.16;;;7.08;61.20
54038;BME280;39954;48.844;9.726;2023-12-28T05:10:15;96200.66;;;7.13;60.47
54038;BME280;39954;48.844;9.726;2023-12-28T05:11:18;96193.75;;;7.13;60.76
54038;BME280;39954;48.844;9.726;2023-12-28T05:12:22;96207.13;;;7.23;60.08
54038;BME280;39954;48.844;9.726;2023-12-28T05:13:28;96200.41;;;7.19;61.06
54038;BME280;39954;48.844;9.726;2023-12-28T05:14:33;96198.47;;;7.24;60.58
54038;BME280;39954;48.844;9.726;2023-12-28T05:15:35;96194.13;;;7.25;60.44
54038;BME280;39954;48.844;9.726;2023-12-28T05:16:40;96191.38;;;7.29;60.01
54038;BME280;39954;48.844;9.726;2023-12-28T05:17:46;96188.66;;;7.32;60.12
54038;BME280;39954;48.844;9.726;2023-12-28T05:18:52;96181.59;;;7.36;59.61
54038;BME280;39954;48.844;9.726;2023-12-28T05:19:55;96180.63;;;7.38;59.31
54038;BME280;39954;48.844;9.726;2023-12-28T05:21:00;96182.50;;;7.35;59.60
54038;BME280;39954;48.844;9.726;2023-12-28T05:22:02;96189.34;;;7.36;59.43
54038;BME280;39954;48.844;9.726;2023-12-28T05:23:08;96185.53;;;7.24;60.64
54038;BME280;39954;48.844;9.726;2023-12-28T05:24:13;96185.66;;;7.21;60.33
54038;BME280;39954;48.844;9.726;2023-12-28T05:25:15;96189.88;;;7.24;59.98
54038;BME280;39954;48.844;9.726;2023-12-28T05:26:20;96179.22;;;7.31;59.93
54038;BME280;39954;48.844;9.726;2023-12-28T05:27:22;96187.81;;;7.32;59.60
54038;BME280;39954;48.844;9.726;2023-12-28T05:28:27;96187.69;;;7.35;59.20
54038;BME280;39954;48.844;9.726;2023-12-28T05:29:29;96186.84;;;7.34;59.62
54038;BME280;39954;48.844;9.726;2023-12-28T05:30:31;96189.69;;;7.28;60.05
54038;BME280;39954;48.844;9.726;2023-12-28T05:31:36;96191.38;;;7.29;59.60
54038;BME280;39954;48.844;9.726;2023-12-28T05:32:39;96197.75;;;7.21;60.36
54038;BME280;39954;48.844;9.726;2023-12-28T05:33:46;96192.00;;;7.14;61.21
54038;BME280;39954;48.844;9.726;2023-12-28T05:34:49;96192.78;;;7.16;60.74
54038;BME280;39954;48.844;9.726;2023-12-28T05:35:52;96192.00;;;7.14;60.54
54038;BME280;39954;48.844;9.726;2023-12-28T05:36:56;96186.81;;;7.14;60.25
54038;BME280;39954;48.844;9.726;2023-12-28T05:37:59;96197.09;;;7.15;60.37
54038;BME280;39954;48.844;9.726;2023-12-28T05:39:04;96196.19;;;7.16;60.56
54038;BME280;39954;48.844;9.726;2023-12-28T05:40:07;96196.78;;;7.23;60.42
54038;BME280;39954;48.844;9.726;2023-12-28T05:41:13;96194.34;;;7.20;61.12
54038;BME280;39954;48.844;9.726;2023-12-28T05:42:15;96198.78;;;7.16;60.70
54038;BME280;39954;48.844;9.726;2023-12-28T05:43:20;96198.16;;;7.11;61.12
54038;BME280;39954;48.844;9.726;2023-12-28T05:44:22;96202.53;;;7.09;61.39